Gas City, IN

3:18 PM EDT on August 30, 2014 (GMT -0400)
Marion Municipal | Change Station
CLOSE
Current Station
Airport
Location: Marion,
Elevation: 856 ft
Nearby Weather Stations

Elev 856 ft 40.49 °N, 85.68 °W | Updated 23 minutes ago

Scattered Clouds
Scattered Clouds
79 °F
Feels Like 79 °F
N
14
Wind Variable Wind from SSW
Gusts 21 mph

Today
High -- | Low -- °F
--% Chance of Precip.
Yesterday
High -- | Low -- °F
Precip. -- in
7:07 AM 8:17 PM
Waxing Crescent, 24% visible
Pressure 29.98 in
Visibility 7.0 miles
Clouds Scattered Clouds 2400 ft
Dew Point 68 °F
Humidity 67%
Rainfall 0.00 in
Snow Depth Not available.
UV 7 out of 12
Pollen 9.50 out of 12
Air Quality Not available.
Flu Activity Not available.
METAR KMZZ 301855Z AUTO 21012G18KT 7SM SCT024 26/20 A2998 RMK AO2 T02630198

More Conditions Fewer Conditions

Pressure 29.98 in
Visibility 7.0 miles
Clouds Scattered Clouds 2400 ft
Dew Point 68 °F
Humidity 67%
Rainfall 0.00 in
Snow Depth Not available.
UV 7 out of 12
Pollen 9.50 out of 12
Air Quality Not available.
Flu Activity Not available.
METAR KMZZ 301855Z AUTO 21012G18KT 7SM SCT024 26/20 A2998 RMK AO2 T02630198

More Conditions Fewer Conditions

10-Day Weather Forecast

Almanac

Astronomy

Aug. 30, 2014 Rise Set
Actual Time 7:07 AM EDT 8:17 PM EDT
Civil Twilight 6:39 AM EDT 8:45 PM EDT
Nautical Twilight 6:05 AM EDT 9:19 PM EDT
Astronomical Twilight 5:30 AM EDT 9:54 PM EDT
Moon 11:55 AM EDT 10:50 PM EDT
Length of Visible Light 14h 06m
Length of Day
13h 09m
Tomorrow will be 2m 33s shorter.
Waxing Crescent, 24% of the Moon is Illuminated
Today
Waxing Crescent
Sep 2
First Quarter
Sep 8
Full
Sep 15
Last Quarter
Sep 24
New

Today's Extremes

State Highs State Lows

Community

WunderPhotos

Upload Photos

1,748,596 photos uploaded!

WunderBlogs® & News

Nearby

Snow Depth

Station Depth Elevation
No new snow has been reported.

Earthquake Activity

City Distance Mag. Time & Date
No recent earthquake activity has been reported nearby.
Minimum magnitude displayed is 2.5.

Coastal Water Temperatures

Place Temperature
No Stations Reporting

Nearby Weather Stations